Portada
METAR-TAF:

METAR-TAF

Aeropuertos :

Aeropuerto de Okadama

Sapporo, Japón

latitud: 43-07N, longitud: 141-23E, altitud: 8 m

Observación

El informe se hizo hace 7 horas y 21 minutos, a las 09:27 UTC
Viento 4 kt del noreste
Temperatura 7°C
Humedad 81%
Presión 1017 hPa
Visibilidad 10 km o más
Escasas nubes a una altura de 1500 ft
Cielo nuboso a una altura de 3000 ft
Cielo nuboso a una altura de 4500 ft
chaparrones de lluvia

METAR: RJCO 130927Z 04004KT 9999 -SHRA FEW015 BKN030 BKN045 07/04 Q1017 RMK 1ST015 5CU030 6CU045 A3005

Hora: 01:48 (16:48 UTC)


TAF: falta

Observaciones y pronósticos meteorológicos de más de 4000 aeropuertos (mensajes METAR y TAF).

Los puntos amarillos y rojos representan las estaciones disponibles.

Ponga el ratón en el punto deseado para ver el nombre de la estación.

Haga clic para ver las observaciones y los pronósticos meteorológicos.

Para cambiar el mapa : haga clic en los botones verdes con una cruz de color negro para hacer un zoom, en el botón verde con un guión para alejar o en las flechas verdes para mapas adyacentes.


METAR-TAF: